Time;durP1;ratioP1;P1;durP2;ratioP2;P2;SDS_P1;SDS_P2;PMS_P1;PMS_P2;Temp;Humidity;BMP_temperature;BMP_pressure;BME280_temperature;BME280_humidity;BME280_pressure;Samples;Min_cycle;Max_cycle;Signal;HPM_P1;HPM_P2
2021/06/03 00:01:53;;;;;;;5.43;2.88;;;17.70;55.40;;;;;;5027275;28;20123;-67
2021/06/03 00:04:18;;;;;;;5.43;2.63;;;17.70;55.60;;;;;;5027439;28;20139;-65
2021/06/03 00:06:44;;;;;;;6.07;2.95;;;17.70;55.40;;;;;;5029392;28;20425;-65
2021/06/03 00:09:11;;;;;;;4.45;2.67;;;17.70;55.40;;;;;;5029917;28;20022;-69
2021/06/03 00:11:37;;;;;;;3.88;2.85;;;17.60;55.40;;;;;;5030665;28;20121;-68
2021/06/03 00:14:04;;;;;;;5.95;2.75;;;17.60;55.40;;;;;;5042896;28;20144;-69
2021/06/03 00:16:33;;;;;;;3.65;3.35;;;17.50;55.30;;;;;;5026510;28;20187;-67
2021/06/03 00:19:04;;;;;;;6.32;3.33;;;17.40;55.50;;;;;;5022692;28;20029;-65
2021/06/03 00:21:30;;;;;;;6.60;2.78;;;17.40;55.70;;;;;;5026331;28;20026;-65
2021/06/03 00:23:56;;;;;;;3.92;2.80;;;17.30;55.80;;;;;;5028947;28;20025;-67
2021/06/03 00:26:22;;;;;;;4.95;3.13;;;17.20;55.80;;;;;;5029625;28;20025;-65
2021/06/03 00:28:48;;;;;;;4.03;3.05;;;17.10;56.10;;;;;;5030214;28;20059;-65
2021/06/03 00:31:14;;;;;;;3.80;3.00;;;17.00;56.40;;;;;;5029624;28;20056;-66
2021/06/03 00:33:40;;;;;;;3.05;2.72;;;17.00;56.70;;;;;;5030478;28;20363;-68
2021/06/03 00:36:06;;;;;;;4.22;2.70;;;16.90;56.80;;;;;;5028705;28;20021;-66
2021/06/03 00:38:32;;;;;;;9.88;3.10;;;16.90;57.00;;;;;;5023486;28;20030;-65
2021/06/03 00:40:58;;;;;;;8.27;3.17;;;16.90;57.10;;;;;;5028534;28;20037;-66
2021/06/03 00:43:24;;;;;;;6.65;3.13;;;16.90;57.10;;;;;;5029685;28;20033;-67
2021/06/03 00:45:49;;;;;;;4.43;3.28;;;16.90;57.20;;;;;;5028391;28;20037;-65
2021/06/03 00:48:15;;;;;;;4.15;2.70;;;16.80;57.50;;;;;;5027374;28;20025;-68
2021/06/03 00:50:50;;;;;;;3.42;2.45;;;16.80;57.60;;;;;;5029424;28;20026;-65
2021/06/03 00:53:16;;;;;;;4.90;2.80;;;16.80;58.00;;;;;;5029678;28;20104;-66
2021/06/03 00:55:46;;;;;;;5.60;3.35;;;16.80;57.70;;;;;;5024728;28;20160;-66
2021/06/03 00:58:12;;;;;;;5.38;3.17;;;16.80;58.00;;;;;;5029395;28;20033;-67
2021/06/03 01:00:38;;;;;;;3.53;2.92;;;16.70;58.00;;;;;;5029117;28;20017;-69
2021/06/03 01:03:04;;;;;;;4.55;2.92;;;16.60;58.00;;;;;;5028164;28;20034;-69
2021/06/03 01:05:41;;;;;;;3.20;2.90;;;16.50;58.20;;;;;;5022870;28;20149;-67
2021/06/03 01:08:12;;;;;;;6.78;3.03;;;16.50;58.70;;;;;;5027379;28;20315;-68
2021/06/03 01:10:48;;;;;;;6.10;3.30;;;16.50;58.60;;;;;;5028665;28;20433;-70
2021/06/03 01:13:16;;;;;;;2.97;2.40;;;16.40;58.80;;;;;;5028502;28;20087;-68
2021/06/03 01:15:47;;;;;;;5.32;2.72;;;16.30;58.70;;;;;;5042809;28;20434;-69
2021/06/03 01:18:14;;;;;;;4.55;2.85;;;16.30;59.50;;;;;;5029302;28;20041;-69
2021/06/03 01:20:42;;;;;;;5.25;2.95;;;16.20;59.00;;;;;;5021508;28;20021;-67
2021/06/03 01:23:24;;;;;;;4.05;3.20;;;16.20;59.10;;;;;;5029463;28;20087;-67
2021/06/03 01:25:50;;;;;;;5.40;3.05;;;16.20;59.40;;;;;;5025523;28;20385;-65
2021/06/03 01:28:16;;;;;;;5.43;3.05;;;16.10;59.00;;;;;;5028075;28;20173;-65
2021/06/03 01:30:46;;;;;;;3.38;2.80;;;16.10;59.20;;;;;;5028302;28;20029;-68
2021/06/03 01:33:16;;;;;;;5.88;2.90;;;16.10;59.40;;;;;;5028711;28;20029;-64
2021/06/03 01:35:48;;;;;;;6.43;3.05;;;16.10;59.40;;;;;;5026644;28;20026;-67
2021/06/03 01:38:18;;;;;;;4.63;2.92;;;16.10;59.50;;;;;;5027969;28;20017;-65
2021/06/03 01:40:47;;;;;;;4.95;3.45;;;16.00;59.60;;;;;;5028807;28;20104;-68
2021/06/03 01:43:14;;;;;;;6.47;2.67;;;15.90;59.80;;;;;;5025851;28;20033;-69
2021/06/03 01:45:41;;;;;;;4.13;3.20;;;15.80;59.90;;;;;;5015068;28;20033;-65
2021/06/03 01:48:08;;;;;;;5.53;3.15;;;15.80;60.20;;;;;;5026317;28;20129;-67
2021/06/03 01:50:35;;;;;;;5.35;3.40;;;15.70;60.10;;;;;;5023061;28;20363;-67
2021/06/03 01:53:01;;;;;;;4.18;3.17;;;15.70;60.20;;;;;;5027712;28;20035;-68
2021/06/03 01:55:27;;;;;;;5.53;3.00;;;15.70;60.30;;;;;;5027692;28;20076;-67
2021/06/03 01:57:53;;;;;;;6.05;3.30;;;15.70;60.40;;;;;;5028828;28;20378;-70
2021/06/03 02:00:21;;;;;;;4.60;3.00;;;15.60;60.50;;;;;;5028332;28;20026;-69
2021/06/03 02:02:47;;;;;;;3.70;3.20;;;15.60;60.60;;;;;;5024262;28;20032;-67
2021/06/03 02:05:14;;;;;;;4.95;3.17;;;15.60;60.70;;;;;;5033660;28;20033;-68
2021/06/03 02:07:40;;;;;;;10.10;3.08;;;15.50;60.70;;;;;;5020202;28;20026;-68
2021/06/03 02:10:07;;;;;;;4.25;2.70;;;15.60;60.80;;;;;;5028706;28;20585;-67
2021/06/03 02:12:36;;;;;;;3.75;2.78;;;15.50;60.80;;;;;;5027473;28;20037;-67
2021/06/03 02:15:06;;;;;;;3.58;2.88;;;15.50;60.90;;;;;;5027766;28;20547;-65
2021/06/03 02:17:38;;;;;;;4.25;2.92;;;15.50;60.90;;;;;;5026050;28;20033;-69
2021/06/03 02:20:10;;;;;;;3.40;2.80;;;15.50;60.90;;;;;;5020198;28;20022;-66
2021/06/03 02:22:37;;;;;;;4.70;2.80;;;15.50;61.10;;;;;;5028081;28;20033;-67
2021/06/03 02:25:06;;;;;;;4.72;2.97;;;15.40;61.00;;;;;;5028402;28;20025;-68
2021/06/03 02:27:32;;;;;;;3.85;2.75;;;15.40;61.10;;;;;;5031898;28;20021;-67
2021/06/03 02:29:58;;;;;;;3.58;2.50;;;15.40;61.00;;;;;;5032338;28;20108;-68
2021/06/03 02:32:31;;;;;;;3.70;2.80;;;15.40;61.20;;;;;;5031929;28;20084;-69
2021/06/03 02:34:57;;;;;;;3.10;2.80;;;15.30;61.20;;;;;;5029834;28;20056;-68
2021/06/03 02:37:22;;;;;;;4.53;2.92;;;15.30;61.10;;;;;;5032151;28;20025;-68
2021/06/03 02:39:48;;;;;;;3.30;3.03;;;15.20;61.30;;;;;;5029625;28;20048;-69
2021/06/03 02:42:16;;;;;;;4.53;2.90;;;15.20;61.50;;;;;;5032084;28;20204;-69
2021/06/03 02:44:42;;;;;;;5.00;2.53;;;15.20;61.80;;;;;;5030047;28;20132;-70
2021/06/03 02:47:09;;;;;;;3.80;2.40;;;15.20;62.00;;;;;;5030107;28;20021;-69
2021/06/03 02:49:35;;;;;;;3.88;2.83;;;15.10;62.00;;;;;;5029615;28;20020;-69
2021/06/03 02:52:04;;;;;;;3.60;3.00;;;15.10;62.00;;;;;;5030959;28;20028;-67
2021/06/03 02:54:30;;;;;;;2.83;2.53;;;15.10;62.10;;;;;;5031295;28;20462;-70
2021/06/03 02:56:57;;;;;;;4.70;3.25;;;15.10;62.10;;;;;;5031010;28;20079;-69
2021/06/03 02:59:22;;;;;;;2.63;2.42;;;15.20;62.20;;;;;;5032078;28;20033;-69
2021/06/03 03:01:48;;;;;;;4.35;3.13;;;15.10;62.20;;;;;;5031816;28;20493;-69
2021/06/03 03:04:14;;;;;;;3.83;3.10;;;15.10;62.00;;;;;;5023174;28;20032;-66
2021/06/03 03:06:40;;;;;;;4.38;3.80;;;15.00;62.10;;;;;;5028766;28;20034;-69
2021/06/03 03:09:05;;;;;;;4.30;3.78;;;14.90;62.30;;;;;;5019891;28;20097;-67
2021/06/03 03:11:31;;;;;;;5.50;4.18;;;14.90;62.40;;;;;;5031568;28;20424;-69
2021/06/03 03:13:57;;;;;;;7.43;4.18;;;14.80;62.30;;;;;;5030633;28;20481;-68
2021/06/03 03:16:23;;;;;;;4.78;4.05;;;14.80;62.30;;;;;;5023234;28;20493;-69
2021/06/03 03:18:49;;;;;;;7.35;4.45;;;14.70;62.70;;;;;;5028068;28;20052;-68
2021/06/03 03:21:14;;;;;;;7.20;4.18;;;14.70;63.00;;;;;;5023408;28;20037;-68
2021/06/03 03:23:40;;;;;;;6.55;3.97;;;14.70;63.10;;;;;;5030981;28;20029;-67
2021/06/03 03:26:06;;;;;;;6.40;4.13;;;14.70;63.20;;;;;;5030022;28;20029;-67
2021/06/03 03:28:31;;;;;;;8.30;4.40;;;14.70;63.40;;;;;;5030959;28;20343;-69
2021/06/03 03:30:57;;;;;;;5.60;3.90;;;14.60;63.50;;;;;;5030251;28;20032;-68
2021/06/03 03:33:23;;;;;;;6.00;3.78;;;14.60;63.50;;;;;;5031308;28;20376;-68
2021/06/03 03:35:49;;;;;;;8.15;4.30;;;14.50;63.60;;;;;;5028781;28;20026;-69
2021/06/03 03:38:16;;;;;;;6.25;4.32;;;14.50;63.80;;;;;;5029376;28;20037;-68
2021/06/03 03:40:43;;;;;;;4.13;3.50;;;14.50;63.90;;;;;;5025448;28;20021;-67
2021/06/03 03:43:08;;;;;;;4.22;3.40;;;14.40;63.90;;;;;;5031154;28;20517;-66
2021/06/03 03:45:35;;;;;;;3.38;3.08;;;14.40;64.00;;;;;;5028347;28;20087;-70
2021/06/03 03:48:02;;;;;;;3.15;2.88;;;14.40;64.10;;;;;;5024305;28;20088;-69
2021/06/03 03:50:29;;;;;;;3.38;3.03;;;14.40;64.10;;;;;;5028252;28;20037;-69
2021/06/03 03:52:55;;;;;;;3.10;2.75;;;14.40;64.10;;;;;;5030626;28;20033;-68
2021/06/03 03:55:20;;;;;;;3.25;2.72;;;14.40;64.10;;;;;;5029126;28;20489;-68
2021/06/03 03:57:48;;;;;;;4.40;3.03;;;14.40;64.20;;;;;;5029265;28;20039;-68
2021/06/03 04:00:29;;;;;;;3.30;2.70;;;14.40;64.20;;;;;;5026887;28;20021;-68
2021/06/03 04:02:55;;;;;;;4.15;2.97;;;14.40;64.40;;;;;;5030958;28;20029;-68
2021/06/03 04:05:21;;;;;;;4.80;2.55;;;14.40;63.80;;;;;;5027061;28;20095;-71
2021/06/03 04:07:46;;;;;;;2.67;2.47;;;14.30;63.60;;;;;;5021831;28;20025;-69
2021/06/03 04:10:18;;;;;;;3.08;2.75;;;14.30;63.80;;;;;;5029154;28;20430;-69
2021/06/03 04:12:45;;;;;;;3.20;2.80;;;14.20;64.00;;;;;;5029537;28;20493;-68
2021/06/03 04:15:11;;;;;;;3.45;2.60;;;14.20;64.00;;;;;;5016967;28;20112;-69
2021/06/03 04:17:37;;;;;;;3.03;2.72;;;14.20;64.10;;;;;;5029076;28;20093;-68
2021/06/03 04:20:10;;;;;;;3.70;3.03;;;14.10;64.20;;;;;;5029710;28;20026;-68
2021/06/03 04:22:36;;;;;;;3.60;2.90;;;14.10;64.50;;;;;;5030488;28;20135;-68
2021/06/03 04:25:04;;;;;;;2.75;2.40;;;14.20;64.60;;;;;;5027679;28;20064;-68
2021/06/03 04:27:29;;;;;;;6.68;2.88;;;14.20;64.70;;;;;;5027065;28;20037;-68
2021/06/03 04:29:55;;;;;;;5.45;2.80;;;14.30;64.70;;;;;;5027562;28;20369;-68
2021/06/03 04:32:20;;;;;;;3.05;2.60;;;14.30;64.60;;;;;;5028226;28;20033;-69
2021/06/03 04:34:46;;;;;;;5.75;2.70;;;14.30;64.60;;;;;;5028787;28;20033;-68
2021/06/03 04:37:11;;;;;;;4.57;2.70;;;14.40;64.70;;;;;;5030417;28;20470;-69
2021/06/03 04:39:37;;;;;;;3.35;2.60;;;14.50;64.70;;;;;;5024430;28;20088;-69
2021/06/03 04:42:04;;;;;;;4.43;3.28;;;14.50;64.70;;;;;;5028049;28;20026;-69
2021/06/03 04:44:30;;;;;;;3.17;2.88;;;14.60;64.90;;;;;;5023144;28;20112;-69
2021/06/03 04:46:55;;;;;;;4.18;2.90;;;14.70;64.90;;;;;;5023441;28;20083;-68
2021/06/03 04:49:21;;;;;;;4.82;2.97;;;14.80;64.80;;;;;;5029245;28;20096;-68
2021/06/03 04:51:47;;;;;;;4.70;3.17;;;14.90;64.60;;;;;;5029742;28;20028;-68
2021/06/03 04:54:14;;;;;;;5.65;3.70;;;15.00;64.60;;;;;;5020077;28;20454;-67
2021/06/03 04:56:39;;;;;;;4.47;3.70;;;15.00;64.60;;;;;;5029831;28;20482;-67
2021/06/03 04:59:06;;;;;;;8.32;3.90;;;15.00;64.60;;;;;;5029602;28;20100;-68
2021/06/03 05:01:31;;;;;;;4.40;3.83;;;15.10;64.70;;;;;;5026315;28;20028;-67
2021/06/03 05:03:57;;;;;;;6.97;3.72;;;15.20;64.80;;;;;;5028407;28;20462;-66
2021/06/03 05:06:23;;;;;;;4.78;4.28;;;15.20;64.80;;;;;;5027479;28;20051;-67
2021/06/03 05:08:48;;;;;;;5.15;3.80;;;15.30;64.70;;;;;;5029605;28;20061;-69
2021/06/03 05:11:14;;;;;;;9.77;4.07;;;15.40;64.70;;;;;;5027206;28;20030;-67
2021/06/03 05:13:39;;;;;;;4.28;3.88;;;15.50;64.70;;;;;;5022228;28;20052;-68
2021/06/03 05:16:07;;;;;;;6.13;3.63;;;15.70;64.60;;;;;;5028022;28;20426;-69
2021/06/03 05:18:33;;;;;;;3.97;3.28;;;15.80;64.60;;;;;;5026902;28;20143;-69
2021/06/03 05:20:59;;;;;;;4.68;3.65;;;15.90;64.10;;;;;;5028995;28;20033;-68
2021/06/03 05:23:24;;;;;;;4.72;3.17;;;16.10;63.80;;;;;;5029256;28;20036;-68
2021/06/03 05:25:50;;;;;;;5.25;3.22;;;16.30;63.60;;;;;;5023007;28;20056;-68
2021/06/03 05:28:16;;;;;;;3.67;3.15;;;16.40;63.30;;;;;;5028740;28;20469;-67
2021/06/03 05:30:42;;;;;;;6.03;3.50;;;16.50;63.00;;;;;;5027751;28;20030;-67
2021/06/03 05:33:07;;;;;;;8.25;3.40;;;16.70;62.90;;;;;;5029644;28;20033;-69
2021/06/03 05:35:33;;;;;;;5.20;3.50;;;16.80;62.50;;;;;;5027869;28;20029;-68
2021/06/03 05:38:00;;;;;;;4.32;3.30;;;16.90;62.50;;;;;;5026550;28;20059;-69
2021/06/03 05:40:27;;;;;;;5.15;3.13;;;17.10;62.60;;;;;;5029016;28;20123;-68
2021/06/03 05:42:55;;;;;;;6.65;3.08;;;17.20;62.50;;;;;;5029105;28;20049;-68
2021/06/03 05:45:21;;;;;;;4.25;3.33;;;17.40;62.40;;;;;;5024516;28;20549;-67
2021/06/03 05:47:47;;;;;;;5.28;3.60;;;17.50;62.60;;;;;;5025958;28;20025;-67
2021/06/03 05:50:15;;;;;;;6.28;3.65;;;17.60;62.60;;;;;;5026164;28;20033;-67
2021/06/03 05:52:42;;;;;;;4.85;3.20;;;17.80;62.60;;;;;;5024324;28;20021;-67
2021/06/03 05:55:10;;;;;;;4.90;3.20;;;17.90;62.30;;;;;;5003382;28;20128;-68
2021/06/03 05:57:36;;;;;;;3.38;3.08;;;18.00;62.30;;;;;;5028304;28;20032;-69
2021/06/03 06:00:10;;;;;;;4.97;3.20;;;18.10;62.40;;;;;;5026299;28;20393;-68
2021/06/03 06:02:52;;;;;;;6.97;3.72;;;18.20;62.40;;;;;;5021507;28;20034;-68
2021/06/03 06:08:13;;;;;;;5.55;2.97;;;18.20;61.70;;;;;;5003904;28;20073;-68
2021/06/03 06:10:40;;;;;;;3.80;3.33;;;18.10;61.70;;;;;;5031822;28;20120;-69
2021/06/03 06:13:07;;;;;;;3.95;2.97;;;18.10;61.70;;;;;;5031121;28;20025;-68
2021/06/03 06:15:34;;;;;;;4.10;3.40;;;18.10;61.50;;;;;;5026813;28;20378;-68
2021/06/03 06:18:00;;;;;;;5.13;4.18;;;18.10;61.50;;;;;;5027624;28;20125;-68
2021/06/03 06:20:27;;;;;;;3.22;2.90;;;18.20;61.40;;;;;;5027084;28;20037;-67
2021/06/03 06:22:54;;;;;;;4.18;2.85;;;18.20;61.30;;;;;;5026679;28;20033;-67
2021/06/03 06:25:20;;;;;;;4.30;3.00;;;18.30;61.90;;;;;;5027883;28;20478;-68
2021/06/03 06:27:46;;;;;;;3.60;3.25;;;18.40;61.70;;;;;;5030529;28;20036;-68
2021/06/03 06:30:13;;;;;;;3.65;3.05;;;18.60;61.80;;;;;;5029390;28;20030;-68
2021/06/03 06:32:40;;;;;;;3.42;3.13;;;18.80;61.50;;;;;;5026236;28;20148;-69
2021/06/03 06:35:07;;;;;;;6.55;3.45;;;18.90;61.30;;;;;;5026669;28;20021;-68
2021/06/03 06:37:32;;;;;;;3.08;2.78;;;19.00;61.10;;;;;;5028551;28;20028;-67
2021/06/03 06:39:58;;;;;;;6.82;3.42;;;19.10;60.80;;;;;;5024453;28;20037;-67
2021/06/03 06:42:24;;;;;;;6.30;3.15;;;19.10;60.70;;;;;;5022730;28;20104;-66
2021/06/03 06:44:50;;;;;;;3.45;2.85;;;19.20;61.10;;;;;;5022468;28;20026;-67
2021/06/03 06:47:15;;;;;;;3.63;3.08;;;19.30;61.20;;;;;;5020794;28;20037;-68
2021/06/03 06:49:41;;;;;;;3.38;2.90;;;19.30;61.10;;;;;;5024701;28;20551;-68
2021/06/03 06:52:07;;;;;;;7.97;3.17;;;19.40;61.30;;;;;;5022425;28;20013;-68
2021/06/03 06:54:32;;;;;;;3.88;3.10;;;19.60;61.10;;;;;;5026860;28;20104;-67
2021/06/03 06:56:58;;;;;;;4.53;2.40;;;19.80;60.80;;;;;;5031782;28;20060;-68
2021/06/03 06:59:24;;;;;;;2.92;2.63;;;20.00;60.80;;;;;;5024842;28;20025;-68
2021/06/03 07:01:49;;;;;;;2.97;2.47;;;20.20;60.90;;;;;;5028160;28;20030;-67
2021/06/03 07:04:15;;;;;;;4.57;2.72;;;20.50;60.50;;;;;;5032410;28;20120;-68
2021/06/03 07:06:40;;;;;;;5.07;2.58;;;20.80;60.20;;;;;;5031593;28;20825;-66
2021/06/03 07:09:06;;;;;;;5.95;2.85;;;21.00;59.60;;;;;;5026890;28;20041;-69
2021/06/03 07:11:32;;;;;;;5.75;2.67;;;21.10;59.30;;;;;;5031315;28;20025;-69
2021/06/03 07:13:57;;;;;;;3.10;2.72;;;21.30;59.30;;;;;;5030873;28;20029;-69
2021/06/03 07:16:23;;;;;;;2.70;2.50;;;21.60;59.00;;;;;;5025540;28;20022;-68
2021/06/03 07:18:50;;;;;;;2.97;2.40;;;21.80;58.40;;;;;;5030057;28;20034;-66
2021/06/03 07:21:16;;;;;;;5.45;2.60;;;22.10;58.40;;;;;;5031378;28;20025;-69
2021/06/03 07:23:41;;;;;;;4.55;2.15;;;22.50;58.10;;;;;;5030701;28;20393;-68
2021/06/03 07:26:07;;;;;;;4.20;2.70;;;22.70;57.10;;;;;;5042610;28;20117;-67
2021/06/03 07:28:33;;;;;;;3.15;2.28;;;23.00;57.30;;;;;;5029240;28;20037;-69
2021/06/03 07:30:58;;;;;;;3.65;2.13;;;23.40;56.60;;;;;;5028670;28;20087;-68
2021/06/03 07:33:24;;;;;;;4.22;2.10;;;23.50;56.40;;;;;;5031384;28;20572;-68
2021/06/03 07:35:50;;;;;;;3.05;1.88;;;23.50;55.90;;;;;;5025123;28;20343;-68
2021/06/03 07:38:16;;;;;;;2.67;2.25;;;23.70;55.60;;;;;;5030008;28;20033;-67
2021/06/03 07:40:42;;;;;;;3.33;2.10;;;23.80;55.40;;;;;;5030532;28;20105;-69
2021/06/03 07:43:10;;;;;;;3.45;2.33;;;23.90;55.00;;;;;;5032082;28;20029;-69
2021/06/03 07:45:37;;;;;;;2.13;1.92;;;23.90;55.20;;;;;;5029952;28;20029;-66
2021/06/03 07:48:03;;;;;;;4.63;2.00;;;24.00;55.30;;;;;;5030172;28;20036;-68
2021/06/03 07:50:32;;;;;;;2.45;1.98;;;24.00;55.30;;;;;;5024396;28;20037;-69
2021/06/03 07:52:59;;;;;;;3.65;1.80;;;24.10;55.30;;;;;;5031182;28;20069;-68
2021/06/03 07:55:25;;;;;;;3.08;1.88;;;24.10;54.90;;;;;;5029389;28;20034;-69
2021/06/03 07:57:56;;;;;;;2.22;1.98;;;24.20;54.60;;;;;;5023241;28;20044;-68
2021/06/03 08:00:23;;;;;;;2.25;2.05;;;24.30;54.20;;;;;;5027776;28;20029;-69
2021/06/03 08:02:49;;;;;;;3.67;2.33;;;24.70;54.00;;;;;;5030557;28;20041;-68
2021/06/03 08:05:17;;;;;;;2.58;1.92;;;25.10;53.50;;;;;;5028241;28;20379;-68
2021/06/03 08:07:43;;;;;;;2.30;2.10;;;25.40;53.20;;;;;;5022899;28;20033;-68
2021/06/03 08:10:11;;;;;;;2.45;1.98;;;25.60;52.40;;;;;;5030654;28;20033;-69
2021/06/03 08:12:37;;;;;;;1.80;1.70;;;25.50;52.30;;;;;;5030137;28;20035;-68
2021/06/03 08:15:05;;;;;;;3.75;2.00;;;25.80;52.40;;;;;;5029593;28;20025;-66
2021/06/03 08:17:31;;;;;;;2.35;2.15;;;26.00;52.20;;;;;;5028085;28;20029;-71
2021/06/03 08:19:57;;;;;;;3.95;1.90;;;26.40;51.30;;;;;;5024653;28;20036;-69
2021/06/03 08:22:22;;;;;;;2.53;2.00;;;26.60;50.90;;;;;;5025777;28;20111;-68
2021/06/03 08:24:48;;;;;;;2.55;2.03;;;26.80;50.30;;;;;;5019197;28;20798;-70
2021/06/03 08:27:13;;;;;;;2.72;2.22;;;27.10;50.50;;;;;;5029950;28;20026;-71
2021/06/03 08:29:39;;;;;;;2.40;2.20;;;27.40;49.50;;;;;;5029659;28;20022;-70
2021/06/03 08:32:05;;;;;;;2.47;2.08;;;27.10;49.20;;;;;;5029138;28;20494;-69
2021/06/03 08:34:31;;;;;;;4.47;2.15;;;26.80;49.50;;;;;;5028697;28;20026;-70
2021/06/03 08:36:56;;;;;;;2.40;2.20;;;26.70;49.60;;;;;;5027080;28;20036;-69
2021/06/03 08:39:22;;;;;;;2.03;1.90;;;27.00;49.40;;;;;;5029240;28;20029;-70
2021/06/03 08:41:47;;;;;;;3.03;2.10;;;27.50;48.70;;;;;;5024825;28;20329;-69
2021/06/03 08:44:14;;;;;;;2.47;2.25;;;27.80;48.40;;;;;;5017713;28;20061;-70
2021/06/03 08:46:40;;;;;;;2.83;2.20;;;28.20;47.80;;;;;;5028018;28;20068;-70
2021/06/03 08:49:10;;;;;;;2.67;2.25;;;28.70;47.10;;;;;;5030654;28;20030;-70
2021/06/03 08:51:36;;;;;;;2.70;2.22;;;29.50;46.10;;;;;;5028999;28;20060;-69
2021/06/03 08:54:02;;;;;;;2.95;2.65;;;30.00;44.70;;;;;;5018770;28;20067;-69
2021/06/03 08:56:28;;;;;;;4.18;2.53;;;30.40;43.80;;;;;;5024361;28;20049;-70
2021/06/03 08:59:00;;;;;;;4.15;3.35;;;30.70;42.80;;;;;;5029968;28;20048;-70
2021/06/03 09:01:27;;;;;;;2.53;2.33;;;30.80;42.70;;;;;;5030314;28;20080;-70
2021/06/03 09:03:53;;;;;;;4.70;3.33;;;30.60;43.10;;;;;;5029458;28;20056;-70
2021/06/03 09:06:20;;;;;;;6.28;3.22;;;30.80;43.00;;;;;;5027802;28;20025;-71
2021/06/03 09:08:52;;;;;;;2.42;2.20;;;31.10;42.60;;;;;;5023917;28;20079;-70
2021/06/03 09:11:19;;;;;;;2.55;2.05;;;31.40;41.80;;;;;;5028181;28;20044;-70
2021/06/03 09:13:55;;;;;;;3.08;1.80;;;31.80;41.60;;;;;;5029652;28;20490;-70
2021/06/03 09:16:29;;;;;;;3.65;2.20;;;32.10;40.40;;;;;;5027537;28;20041;-70
2021/06/03 09:18:55;;;;;;;3.83;2.00;;;32.20;39.90;;;;;;5020416;28;20030;-70
2021/06/03 09:21:29;;;;;;;2.97;1.70;;;32.20;40.30;;;;;;5025848;28;20045;-71
2021/06/03 09:23:59;;;;;;;3.40;1.90;;;32.40;39.70;;;;;;5024739;28;20029;-70
2021/06/03 09:26:27;;;;;;;2.30;2.10;;;32.60;40.20;;;;;;5025426;28;20017;-67
2021/06/03 09:28:54;;;;;;;2.85;2.30;;;33.00;39.70;;;;;;5027231;28;20254;-68
2021/06/03 09:31:22;;;;;;;2.47;2.28;;;33.40;40.30;;;;;;5023435;28;20033;-67
2021/06/03 09:34:04;;;;;;;4.72;2.38;;;33.60;39.00;;;;;;5025098;28;20021;-70
2021/06/03 09:36:38;;;;;;;2.35;2.08;;;33.90;38.80;;;;;;5027234;28;20071;-67
2021/06/03 09:39:04;;;;;;;3.92;1.80;;;34.20;37.80;;;;;;5028107;28;20528;-67
2021/06/03 09:41:31;;;;;;;2.42;2.05;;;34.30;38.10;;;;;;5021778;28;20026;-66
2021/06/03 09:44:15;;;;;;;3.28;1.98;;;34.50;37.70;;;;;;5024868;28;20355;-65
2021/06/03 09:46:44;;;;;;;3.15;2.30;;;34.70;37.60;;;;;;5025451;28;20049;-65
2021/06/03 09:49:28;;;;;;;2.92;2.10;;;34.60;37.50;;;;;;5018563;28;20033;-66
2021/06/03 09:51:57;;;;;;;1.73;1.58;;;34.60;38.00;;;;;;5024517;28;20033;-67
2021/06/03 09:54:24;;;;;;;2.22;1.92;;;34.70;37.60;;;;;;5026799;28;20025;-65
2021/06/03 09:56:56;;;;;;;3.08;2.13;;;34.60;37.40;;;;;;5029028;28;20381;-65
2021/06/03 09:59:36;;;;;;;4.25;2.15;;;34.40;37.50;;;;;;5027971;28;20277;-65
2021/06/03 10:02:12;;;;;;;3.05;2.13;;;34.30;38.00;;;;;;5028531;28;20056;-68
2021/06/03 10:04:40;;;;;;;2.00;1.90;;;34.20;38.50;;;;;;5025876;28;20560;-66
2021/06/03 10:07:07;;;;;;;3.47;1.80;;;34.30;38.40;;;;;;5027783;28;20029;-65
2021/06/03 10:09:44;;;;;;;2.08;1.88;;;34.30;38.60;;;;;;5027741;28;20044;-65
2021/06/03 10:12:23;;;;;;;1.73;1.63;;;34.30;38.40;;;;;;5028446;28;20549;-65
2021/06/03 10:15:36;;;;;;;1.65;1.52;;;34.40;38.20;;;;;;5026920;28;20037;-67
2021/06/03 10:18:05;;;;;;;2.88;1.45;;;34.30;38.00;;;;;;5003670;28;20034;-66
2021/06/03 10:20:30;;;;;;;2.35;1.42;;;34.00;37.70;;;;;;5019598;28;20530;-69
2021/06/03 10:22:57;;;;;;;1.55;1.45;;;33.70;37.40;;;;;;5028298;28;20128;-66
2021/06/03 10:25:23;;;;;;;1.38;1.20;;;33.60;37.10;;;;;;5026770;28;20029;-65
2021/06/03 10:27:51;;;;;;;1.73;1.30;;;33.40;37.60;;;;;;5029086;28;20504;-67
2021/06/03 10:30:22;;;;;;;3.08;1.50;;;33.10;36.90;;;;;;5028545;28;20033;-66
2021/06/03 10:32:49;;;;;;;3.35;1.50;;;32.70;36.70;;;;;;5028799;28;20017;-65
2021/06/03 10:35:22;;;;;;;1.45;1.27;;;32.10;36.50;;;;;;5026159;28;20049;-69
2021/06/03 10:37:48;;;;;;;2.33;1.38;;;31.70;36.80;;;;;;5023080;28;20022;-65
2021/06/03 10:40:27;;;;;;;1.27;1.23;;;31.50;37.20;;;;;;5024526;28;20022;-71
2021/06/03 10:42:53;;;;;;;2.33;1.23;;;31.20;37.80;;;;;;5028704;28;20471;-68
2021/06/03 10:45:23;;;;;;;1.45;1.35;;;31.00;38.40;;;;;;5027898;28;20120;-68
2021/06/03 10:47:49;;;;;;;1.95;1.27;;;31.00;39.00;;;;;;5031026;28;20109;-67
2021/06/03 10:50:23;;;;;;;4.20;1.50;;;31.10;38.90;;;;;;5032690;28;20041;-71
2021/06/03 10:52:50;;;;;;;4.10;1.42;;;31.00;38.30;;;;;;5017827;28;20029;-70
2021/06/03 10:55:30;;;;;;;4.65;1.60;;;30.80;38.90;;;;;;5031270;28;20021;-67
2021/06/03 10:58:00;;;;;;;2.75;1.40;;;30.50;38.90;;;;;;5028320;28;20091;-68
2021/06/03 11:00:31;;;;;;;2.42;1.30;;;30.30;39.50;;;;;;5030717;28;20148;-67
2021/06/03 11:03:04;;;;;;;6.90;4.45;;;30.10;39.60;;;;;;5031592;28;20033;-67
2021/06/03 11:05:42;;;;;;;1.77;1.40;;;30.10;40.10;;;;;;5031469;28;20033;-68
2021/06/03 11:08:32;;;;;;;1.70;1.33;;;30.10;39.80;;;;;;5032222;28;20033;-69
2021/06/03 11:11:10;;;;;;;2.42;1.42;;;30.10;39.70;;;;;;5031499;28;20025;-67
2021/06/03 11:13:38;;;;;;;2.75;1.40;;;30.00;39.80;;;;;;5019246;28;20480;-67
2021/06/03 11:16:09;;;;;;;3.08;1.58;;;29.80;39.70;;;;;;5030943;28;20064;-67
2021/06/03 11:18:58;;;;;;;2.90;1.50;;;29.50;39.50;;;;;;5047089;28;20025;-68
2021/06/03 11:21:35;;;;;;;3.35;1.50;;;29.20;40.10;;;;;;5022597;28;20401;-67
2021/06/03 11:24:01;;;;;;;1.48;1.38;;;29.00;40.40;;;;;;5031182;28;20412;-67
2021/06/03 11:26:42;;;;;;;2.75;1.60;;;28.90;40.90;;;;;;5031473;28;20029;-68
2021/06/03 11:29:25;;;;;;;2.47;1.60;;;28.70;40.90;;;;;;5031200;28;20088;-68
2021/06/03 11:34:43;;;;;;;2.67;1.58;;;28.30;41.90;;;;;;5030018;28;20064;-69
2021/06/03 11:37:10;;;;;;;5.88;2.00;;;28.30;42.00;;;;;;5038729;28;20057;-67
2021/06/03 11:40:10;;;;;;;3.30;1.63;;;28.40;42.40;;;;;;5032346;28;20029;-67
2021/06/03 11:42:39;;;;;;;1.55;1.42;;;28.60;42.60;;;;;;5032414;28;20123;-67
2021/06/03 11:45:32;;;;;;;2.92;1.50;;;28.90;43.00;;;;;;5029044;28;20057;-70
2021/06/03 11:48:05;;;;;;;9.80;1.73;;;29.30;42.30;;;;;;5018386;28;20108;-70
2021/06/03 11:50:31;;;;;;;2.90;1.67;;;29.50;41.80;;;;;;5030012;28;20036;-70
2021/06/03 11:52:58;;;;;;;4.07;1.70;;;29.70;41.70;;;;;;5032051;28;20029;-68
2021/06/03 11:55:33;;;;;;;2.38;1.90;;;29.80;41.60;;;;;;5030114;28;20021;-71
2021/06/03 11:58:17;;;;;;;1.70;1.60;;;29.90;41.90;;;;;;5032385;28;20044;-68
2021/06/03 12:00:52;;;;;;;1.75;1.65;;;29.80;41.70;;;;;;5030809;28;20021;-67
2021/06/03 12:03:27;;;;;;;2.00;1.70;;;29.70;41.60;;;;;;5031245;28;20421;-68
2021/06/03 12:05:55;;;;;;;3.40;2.10;;;29.70;42.10;;;;;;5030413;28;20025;-67
2021/06/03 12:08:48;;;;;;;1.95;1.23;;;29.80;42.20;;;;;;5030731;28;20551;-68
2021/06/03 12:11:17;;;;;;;2.53;1.50;;;29.80;41.70;;;;;;5027061;28;20136;-68
2021/06/03 12:13:45;;;;;;;1.80;1.63;;;29.70;41.80;;;;;;5023091;28;20482;-74
2021/06/03 12:16:11;;;;;;;1.70;1.60;;;29.70;41.70;;;;;;5019030;28;20084;-71
2021/06/03 12:18:40;;;;;;;1.75;1.50;;;29.80;42.20;;;;;;5017961;28;20064;-70
2021/06/03 12:21:09;;;;;;;2.70;2.50;;;29.90;42.20;;;;;;5030036;28;20030;-70
2021/06/03 12:23:43;;;;;;;2.90;1.63;;;30.10;42.30;;;;;;5030271;28;20512;-70
2021/06/03 12:26:14;;;;;;;1.77;1.52;;;30.30;41.80;;;;;;5029865;28;20040;-69
2021/06/03 12:28:39;;;;;;;1.90;1.70;;;30.50;41.80;;;;;;5028011;28;20393;-69
2021/06/03 12:31:05;;;;;;;1.83;1.70;;;30.60;41.60;;;;;;5030545;28;20033;-70
2021/06/03 12:33:31;;;;;;;6.28;1.55;;;30.70;41.60;;;;;;5028741;28;20021;-71
2021/06/03 12:36:05;;;;;;;1.70;1.60;;;30.80;41.80;;;;;;5028607;28;20079;-71
2021/06/03 12:38:38;;;;;;;2.13;1.60;;;30.80;41.30;;;;;;5025309;28;20022;-73
2021/06/03 12:41:24;;;;;;;2.83;1.85;;;31.00;41.50;;;;;;5026821;28;20025;-69
2021/06/03 12:44:00;;;;;;;1.35;1.25;;;31.10;40.50;;;;;;5025049;28;20434;-74
2021/06/03 12:46:53;;;;;;;2.75;1.42;;;31.00;41.20;;;;;;5030716;28;20029;-70
2021/06/03 12:49:23;;;;;;;1.70;1.13;;;31.10;41.30;;;;;;5028759;28;20459;-70
2021/06/03 12:52:03;;;;;;;1.55;1.20;;;31.10;40.30;;;;;;5029351;28;20091;-69
2021/06/03 12:54:44;;;;;;;2.25;1.10;;;31.00;39.30;;;;;;5010408;28;20050;-69
2021/06/03 12:57:15;;;;;;;1.30;1.20;;;30.80;39.20;;;;;;5029287;28;20057;-74
2021/06/03 12:59:43;;;;;;;2.60;1.17;;;30.60;38.90;;;;;;5030865;28;20091;-74
2021/06/03 13:02:10;;;;;;;3.45;1.30;;;30.50;39.10;;;;;;5030557;28;20061;-69